Casement, Ireland

11:13 AM GMT on March 06, 2015 (GMT +0000)
Lucan | Change Station
CLOSE
Current Station
Personal Weather Station
Location: Co. Dublin, CO. DUBLIN
Elevation: 167 ft
Nearby Weather Stations

Elev 167 ft 53.34 °N, 6.44 °W | Updated 5 minutes ago

Mostly Cloudy
Mostly Cloudy
53.2 °F
Feels Like 53.2 °F
N
0.0
Wind Variable Wind from North
Gusts 0.0 mph

Today
High -- | Low -- °F
--% Chance of Precip.
Yesterday
High -- | Low -- °F
Precip. -- in
7:02 AM 6:12 PM
Full, 100% visible
Pressure 30.24 in
Visibility 6.2 miles
Clouds Mostly Cloudy 2400 ft
Mostly Cloudy 25000 ft
Dew Point 41 °F
Humidity 64%
Rainfall in
Snow Depth Not available.
UV 1 out of 12
Pollen Not available.
Air Quality Not available.
Flu Activity Not available.
METAR EIME 061100Z 22021G31KT 9999 BKN024 BKN250 10/05 Q1024

More Conditions Fewer Conditions

Pressure 30.24 in
Visibility 6.2 miles
Clouds Mostly Cloudy 2400 ft
Mostly Cloudy 25000 ft
Dew Point 41 °F
Humidity 64%
Rainfall in
Snow Depth Not available.
UV 1 out of 12
Pollen Not available.
Air Quality Not available.
Flu Activity Not available.
METAR EIME 061100Z 22021G31KT 9999 BKN024 BKN250 10/05 Q1024

More Conditions Fewer Conditions

10-Day Weather Forecast

Almanac

Astronomy

Mar. 06, 2015 Rise Set
Actual Time
Civil Twilight
Nautical Twilight
Astronomical Twilight
Moon
Length of Visible Light
Length of Day
Tomorrow will be .
, % of the Moon is Illuminated

Today's Extremes

Country Highs Country Lows

Community

WunderPhotos

Upload Photos

1,803,225 photos uploaded!

WunderBlogs® & News

Nearby

Air Quality

  Air Quality AQ Index Pollutant
Not available.

Snow Depth

Station Depth Elevation

Earthquake Activity

City Distance Mag. Time & Date
Minimum magnitude displayed is 2.5.

Coastal Water Temperatures

Place Temperature

Nearby Weather Stations